Terminal Aerodrome Forecast
Issued by NWS Mt. Holly, NJ

Home | Current Version | Previous Version | Text Only | Print | Product List | Glossary On
Versions: 1 2 3 4 5 6 7 8 9 10 11 12 13 14 15 16 17 18
755
FTUS41 KPHI 131720
TAFACY
TAF
KACY 131720Z 1318/1418 30022G35KT P6SM BKN060
      TEMPO 1318/1321 4SM -SHSN BKN035
     FM140200 31014G22KT P6SM SCT050
     FM141000 31012KT P6SM SKC=

USA.gov is the U.S. government's official web portal to all federal, state and local government web resources and services.